Latest Weather Observations for Lake Macquarie - Cooranbong

IDN60801

Issued at 1:02 pm EST Tuesday 30 May 2017 (issued every 30 minutes, with the page automatically refreshed every 10 minutes)

About weather observations | Map of weather stations | Latest weather observations for NSW | Other Formats
Station Details ID: 061412 Name: LAKE MACQUARIE AWS Lat: -33.09 Lon: 151.46 Height: 6.0 m
Data from the previous 72 hours. | See also: Recent months at Lake Macquarie - Cooranbong
Date/Time
EST
Temp
°C
App
Temp
°C
Dew
Point
°C
Rel
Hum
%
Delta-T
°C
Wind Press
QNH
hPa
Press
MSL
hPa
Rain since
9am
mm
Dir  Spd
km/h
Gust
km/h
Spd
kts
Gust
kts
30/01:00pm 16.3 13.2 0.4 34 6.8 NW 6 13 3 7 1021.0 1021.0 0.0
30/12:30pm 15.7 12.4 -0.1 34 6.7 NNW 7 17 4 9 1021.2 1021.2 0.0
30/12:00pm 15.3 12.0 -0.1 35 6.5 NW 7 13 4 7 1021.9 1021.9 0.0
30/11:30am 14.1 10.5 0.4 39 5.8 NW 9 15 5 8 1022.3 1022.3 0.0
30/11:00am 13.8 10.3 1.1 42 5.4 NW 9 17 5 9 1022.6 1022.6 0.0
30/10:30am 12.8 10.8 4.3 56 3.9 NNE 4 9 2 5 1023.2 1023.2 0.0
30/10:00am 11.4 9.2 5.1 65 2.9 NE 6 9 3 5 1023.5 1023.5 0.0
30/09:30am 9.4 6.8 4.2 70 2.3 N 7 11 4 6 1023.9 1023.9 0.0
30/09:00am 7.6 5.3 4.7 82 1.3 NNE 6 9 3 5 1023.9 1023.9 0.2
30/08:30am 5.3 4.1 4.7 96 0.3 CALM 0 0 0 0 1023.9 1023.9 0.2
30/08:00am 2.3 0.6 1.6 95 0.3 CALM 0 0 0 0 1024.2 1024.2 0.2
30/07:30am 0.4 -1.7 -0.5 94 0.3 CALM 0 0 0 0 1024.1 1024.1 0.0
30/07:00am 0.1 -2.0 -0.7 94 0.3 CALM 0 0 0 0 1024.2 1024.2 0.0
30/06:30am 0.2 -1.9 -0.6 94 0.3 CALM 0 0 0 0 1023.7 1023.7 0.0
30/06:00am 0.5 -1.5 -0.4 94 0.3 CALM 0 0 0 0 1023.4 1023.4 0.0
30/05:30am 0.8 -1.2 -0.1 94 0.3 CALM 0 0 0 0 1023.1 1023.1 0.0
30/05:00am 0.9 -1.1 -0.1 93 0.4 CALM 0 0 0 0 1023.0 1023.0 0.0
30/04:30am 1.0 -1.0 0.0 93 0.4 CALM 0 0 0 0 1022.6 1022.6 0.0
30/04:00am 1.3 -0.6 0.3 93 0.4 CALM 0 0 0 0 1022.7 1022.7 0.0
30/03:30am 1.4 -0.5 0.4 93 0.4 CALM 0 0 0 0 1022.7 1022.7 0.0
30/03:00am 1.6 -0.3 0.6 93 0.4 CALM 0 0 0 0 1022.9 1022.9 0.0
30/02:30am 1.8 -0.1 0.8 93 0.4 CALM 0 0 0 0 1022.9 1022.9 0.0
30/02:00am 2.0 0.2 1.0 93 0.4 CALM 0 0 0 0 1022.7 1022.7 0.0
30/01:30am 2.2 0.4 1.2 93 0.4 CALM 0 0 0 0 1022.7 1022.7 0.0
30/01:00am 2.6 0.9 1.6 93 0.4 CALM 0 0 0 0 1022.8 1022.8 0.0
30/12:30am 2.8 1.1 1.8 93 0.4 CALM 0 0 0 0 1022.8 1022.8 0.0
30/12:00am 3.3 1.7 2.3 93 0.4 CALM 0 0 0 0 1023.0 1023.0 0.0
 
Date/Time
EST
Temp
°C
App
Temp
°C
Dew
Point
°C
Rel
Hum
%
Delta-T
°C
Wind Press
QNH
hPa
Press
MSL
hPa
Rain since
9am
mm
Dir  Spd
km/h
Gust
km/h
Spd
kts
Gust
kts
29/11:30pm 3.6 2.0 2.4 92 0.5 CALM 0 0 0 0 1023.2 1023.2 0.0
29/11:00pm 3.7 2.1 2.5 92 0.5 CALM 0 0 0 0 1023.2 1023.2 0.0
29/10:30pm 3.9 2.3 2.6 91 0.5 CALM 0 0 0 0 1023.2 1023.2 0.0
29/10:00pm 4.4 2.9 3.1 91 0.5 CALM 0 0 0 0 1023.0 1023.0 0.0
29/09:30pm 4.8 3.4 3.5 91 0.5 CALM 0 0 0 0 1022.9 1022.9 0.0
29/09:00pm 5.4 4.0 3.7 89 0.7 CALM 0 0 0 0 1022.6 1022.6 0.0
29/08:30pm 5.7 4.4 3.9 88 0.8 CALM 0 0 0 0 1022.3 1022.3 0.0
29/08:00pm 6.2 4.9 4.2 87 0.9 CALM 0 0 0 0 1022.1 1022.1 0.0
29/07:30pm 6.8 5.6 4.6 86 1.0 CALM 0 0 0 0 1021.9 1021.9 0.0
29/07:00pm 7.5 6.3 4.8 83 1.2 CALM 0 0 0 0 1021.6 1021.6 0.0
29/06:30pm 8.3 7.2 5.2 81 1.4 CALM 0 0 0 0 1021.2 1021.2 0.0
29/06:00pm 9.5 8.5 5.5 76 1.8 CALM 0 0 0 0 1020.8 1020.8 0.0
29/05:30pm 10.5 9.5 5.5 71 2.3 CALM 0 0 0 0 1020.4 1020.4 0.0
29/05:00pm 12.1 10.1 4.6 60 3.4 NW 4 6 2 3 1020.1 1020.1 0.0
29/04:30pm 14.5 12.8 1.8 42 5.5 CALM 0 0 0 0 1019.7 1019.7 0.0
29/04:00pm 17.4 14.5 -3.9 23 8.4 NW 2 6 1 3 1019.4 1019.4 0.0
29/03:30pm 18.7 16.0 -2.3 24 8.7 WNW 2 4 1 2 1019.0 1019.0 0.0
29/03:00pm 18.3 14.6 -3.2 23 8.7 W 7 17 4 9 1018.8 1018.8 0.0
29/02:30pm 18.2 14.5 -3.2 23 8.7 WSW 7 11 4 6 1018.4 1018.4 0.0
29/02:00pm 18.2 14.1 -2.7 24 8.6 W 9 19 5 10 1018.1 1018.1 0.0
29/01:30pm 17.9 13.4 -3.5 23 8.6 W 11 19 6 10 1018.2 1018.2 0.0
29/01:00pm 17.7 13.0 -2.0 26 8.2 W 13 22 7 12 1018.1 1018.1 0.0
29/12:30pm 17.3 12.2 -1.9 27 8.0 WNW 15 24 8 13 1018.1 1018.1 0.0
29/12:00pm 16.9 12.6 -1.7 28 7.7 W 11 24 6 13 1018.3 1018.3 0.0
29/11:30am 16.6 12.0 -1.0 30 7.4 WNW 13 26 7 14 1018.6 1018.6 0.0
29/11:00am 16.4 12.4 0.5 34 6.9 W 11 20 6 11 1018.8 1018.8 0.0
29/10:30am 15.8 11.4 0.4 35 6.6 WNW 13 24 7 13 1019.1 1019.1 0.0
29/10:00am 15.6 11.4 1.4 38 6.2 W 13 20 7 11 1018.8 1018.8 0.0
29/09:30am 15.3 11.2 2.5 42 5.7 W 13 28 7 15 1018.6 1018.6 0.0
29/09:00am 14.7 11.7 4.1 49 4.9 NW 9 15 5 8 1018.6 1018.6 0.0
29/08:30am 13.5 10.9 4.4 54 4.2 NW 7 17 4 9 1018.3 1018.3 0.0
29/08:00am 12.6 10.1 4.6 58 3.6 NW 7 15 4 8 1018.1 1018.1 0.0
29/07:30am 10.2 7.9 5.0 70 2.3 NW 6 11 3 6 1017.8 1017.8 0.0
29/07:00am 7.7 5.4 4.7 81 1.3 NW 6 11 3 6 1017.4 1017.4 0.0
29/06:30am 6.3 4.0 4.9 91 0.6 NNW 6 11 3 6 1017.0 1017.0 0.0
29/06:00am 5.2 3.5 4.2 93 0.4 NNE 2 4 1 2 1016.5 1016.5 0.0
29/05:30am 5.3 4.0 4.1 92 0.5 CALM 0 0 0 0 1016.1 1016.1 0.0
29/05:00am 6.0 4.8 4.8 92 0.5 CALM 0 0 0 0 1015.9 1015.9 0.0
29/04:30am 6.5 5.4 5.1 91 0.6 CALM 0 4 0 2 1015.7 1015.7 0.0
29/04:00am 6.9 5.9 5.4 90 0.7 CALM 0 0 0 0 1015.7 1015.7 0.0
29/03:30am 7.2 5.7 5.2 87 0.9 N 2 4 1 2 1015.7 1015.7 0.0
29/03:00am 8.9 7.9 5.6 80 1.5 CALM 0 0 0 0 1015.5 1015.5 0.0
29/02:30am 13.1 10.6 3.5 52 4.3 W 6 9 3 5 1015.1 1015.1 0.0
29/02:00am 14.2 11.3 4.5 52 4.5 W 9 17 5 9 1015.0 1015.0 0.0
29/01:30am 10.6 9.2 7.3 80 1.6 WSW 4 11 2 6 1014.7 1014.7 0.0
29/01:00am 10.2 9.0 8.0 86 1.1 W 4 9 2 5 1014.6 1014.6 0.0
29/12:30am 10.4 9.9 9.2 92 0.6 WNW 2 4 1 2 1014.3 1014.3 0.0
29/12:00am 10.4 10.3 9.5 94 0.4 CALM 0 0 0 0 1014.2 1014.2 0.0
 
Date/Time
EST
Temp
°C
App
Temp
°C
Dew
Point
°C
Rel
Hum
%
Delta-T
°C
Wind Press
QNH
hPa
Press
MSL
hPa
Rain since
9am
mm
Dir  Spd
km/h
Gust
km/h
Spd
kts
Gust
kts
28/11:30pm 10.8 10.8 9.9 94 0.5 CALM 0 0 0 0 1013.9 1013.9 0.0
28/11:00pm 11.3 11.4 10.2 93 0.6 CALM 0 0 0 0 1013.6 1013.6 0.0
28/10:30pm 11.3 11.4 10.2 93 0.6 CALM 0 0 0 0 1013.4 1013.4 0.0
28/10:00pm 11.5 11.6 10.1 91 0.7 CALM 0 0 0 0 1013.1 1013.1 0.0
28/09:30pm 12.2 12.4 10.6 90 0.8 CALM 0 0 0 0 1013.0 1013.0 0.0
28/09:00pm 12.3 12.5 10.5 89 0.9 CALM 0 2 0 1 1012.8 1012.8 0.0
28/08:30pm 12.9 12.8 10.8 87 1.1 NNW 2 6 1 3 1012.5 1012.5 0.0
28/08:00pm 13.3 13.5 10.7 84 1.4 CALM 0 0 0 0 1012.3 1012.3 0.0
28/07:30pm 14.1 14.5 11.3 83 1.5 CALM 0 2 0 1 1012.1 1012.1 0.0
28/07:00pm 14.3 14.3 11.3 82 1.6 N 2 6 1 3 1011.7 1011.7 0.0
28/06:30pm 14.3 14.5 10.7 79 1.9 CALM 0 4 0 2 1011.3 1011.3 0.0
28/06:00pm 15.6 15.6 11.0 74 2.5 NE 2 6 1 3 1010.9 1010.9 0.0
28/05:30pm 16.5 16.1 11.0 70 2.9 NNE 4 7 2 4 1011.0 1011.0 0.0
28/05:00pm 18.2 17.3 10.8 62 4.0 N 6 9 3 5 1010.8 1010.8 0.0
28/04:30pm 19.2 18.1 10.5 57 4.7 N 7 11 4 6 1010.7 1010.7 0.0
28/04:00pm 20.4 19.0 9.6 50 5.8 N 7 15 4 8 1010.7 1010.7 0.0
28/03:30pm 21.3 19.1 9.5 47 6.3 N 11 17 6 9 1010.6 1010.6 0.0
28/03:00pm 21.7 20.2 10.5 49 6.1 N 9 17 5 9 1010.8 1010.8 0.0
28/02:30pm 21.7 19.6 9.6 46 6.5 NNW 11 19 6 10 1011.0 1011.0 0.0
28/02:00pm 21.9 20.1 10.7 49 6.2 NNW 11 19 6 10 1011.2 1011.2 0.0
28/01:30pm 21.4 18.9 10.9 51 5.8 NNW 15 24 8 13 1011.3 1011.3 0.0
28/01:00pm 21.6 18.8 11.3 52 5.7 NNW 17 33 9 18 1011.7 1011.7 0.0
28/12:30pm 21.2 17.6 10.4 50 5.9 NNW 20 33 11 18 1012.1 1012.1 0.0
28/12:00pm 21.2 18.6 10.7 51 5.7 NNW 15 28 8 15 1012.4 1012.4 0.0
28/11:30am 20.6 17.1 10.1 51 5.7 NNW 19 30 10 16 1012.9 1012.9 0.0
28/11:00am 21.1 18.6 11.2 53 5.5 NNW 15 24 8 13 1013.2 1013.2 0.0
28/10:30am 20.6 17.9 10.4 52 5.5 NNW 15 24 8 13 1013.7 1013.7 0.0
28/10:00am 19.7 17.9 10.9 57 4.8 NW 11 20 6 11 1014.4 1014.4 0.0
28/09:30am 18.9 17.6 11.2 61 4.2 NNW 9 20 5 11 1014.2 1014.2 0.0
28/09:23am 18.2 17.0 11.7 66 3.6 NW 9 17 5 9 1014.2 1014.2 0.0
28/09:00am 13.2 13.1 13.2 100 0.0 N 6 9 3 5 1014.1 1014.1 0.2
28/08:30am 10.7 10.9 10.5 99 0.1 CALM 0 2 0 1 1014.4 1014.4 0.2
28/08:00am 7.9 7.4 7.8 99 0.0 CALM 0 0 0 0 1014.5 1014.5 0.2
28/07:30am 6.4 5.5 6.0 97 0.2 CALM 0 0 0 0 1014.4 1014.4 0.2
28/07:00am 5.7 4.6 5.3 97 0.2 CALM 0 0 0 0 1014.1 1014.1 0.2
28/06:30am 5.7 4.6 5.3 97 0.2 CALM 0 0 0 0 1013.9 1013.9 0.2
28/06:00am 5.6 4.5 5.2 97 0.2 CALM 0 0 0 0 1014.1 1014.1 0.2
28/05:30am 5.8 4.8 5.4 97 0.2 CALM 0 0 0 0 1014.1 1014.1 0.2
28/05:00am 5.8 4.7 5.2 96 0.3 CALM 0 0 0 0 1014.0 1014.0 0.0
28/04:30am 5.9 4.8 5.3 96 0.3 CALM 0 0 0 0 1014.0 1014.0 0.0
28/04:00am 6.0 5.0 5.4 96 0.3 CALM 0 0 0 0 1014.4 1014.4 0.0
28/03:30am 6.0 5.0 5.4 96 0.3 CALM 0 0 0 0 1014.5 1014.5 0.0
28/03:00am 6.2 5.2 5.6 96 0.3 CALM 0 0 0 0 1014.9 1014.9 0.0
28/02:30am 6.3 5.3 5.7 96 0.3 CALM 0 0 0 0 1015.2 1015.2 0.0
28/02:00am 6.6 5.7 5.9 95 0.3 CALM 0 0 0 0 1015.5 1015.5 0.0
28/01:30am 6.8 5.9 6.1 95 0.3 CALM 0 0 0 0 1015.8 1015.8 0.0
28/01:00am 7.2 6.4 6.5 95 0.3 CALM 0 0 0 0 1016.1 1016.1 0.0
28/12:30am 7.5 6.8 6.8 95 0.3 CALM 0 0 0 0 1016.3 1016.3 0.0
28/12:00am 7.7 7.0 7.0 95 0.3 CALM 0 0 0 0 1016.7 1016.7 0.0
 
Date/Time
EST
Temp
°C
App
Temp
°C
Dew
Point
°C
Rel
Hum
%
Delta-T
°C
Wind Press
QNH
hPa
Press
MSL
hPa
Rain since
9am
mm
Dir  Spd
km/h
Gust
km/h
Spd
kts
Gust
kts
27/11:30pm 8.1 7.5 7.3 95 0.4 CALM 0 0 0 0 1017.1 1017.1 0.0
27/11:00pm 8.4 7.8 7.5 94 0.4 CALM 0 0 0 0 1017.5 1017.5 0.0
27/10:30pm 8.8 8.3 7.9 94 0.4 CALM 0 0 0 0 1017.9 1017.9 0.0
27/10:00pm 9.1 8.7 8.2 94 0.4 CALM 0 0 0 0 1018.2 1018.2 0.0
27/09:30pm 9.6 9.3 8.5 93 0.5 CALM 0 0 0 0 1018.3 1018.3 0.0
27/09:00pm 9.9 9.6 8.8 93 0.5 CALM 0 0 0 0 1018.4 1018.4 0.0
27/08:30pm 10.4 10.3 9.3 93 0.5 CALM 0 0 0 0 1018.5 1018.5 0.0
27/08:00pm 11.0 11.1 10.1 94 0.5 CALM 0 0 0 0 1018.4 1018.4 0.0
27/07:30pm 11.6 11.8 10.5 93 0.6 CALM 0 0 0 0 1018.5 1018.5 0.0
27/07:00pm 11.4 11.5 10.0 91 0.7 CALM 0 0 0 0 1018.5 1018.5 0.0
27/06:30pm 11.9 12.0 10.0 88 1.0 CALM 0 0 0 0 1018.4 1018.4 0.0
27/06:00pm 13.2 13.5 10.9 86 1.2 CALM 0 0 0 0 1018.2 1018.2 0.0
27/05:30pm 14.4 14.9 11.7 84 1.4 CALM 0 0 0 0 1018.0 1018.0 0.0
27/05:00pm 16.0 16.5 11.6 75 2.4 CALM 0 0 0 0 1017.8 1017.8 0.0
27/04:30pm 17.9 18.1 11.9 68 3.3 E 2 4 1 2 1017.7 1017.7 0.0
27/04:00pm 18.9 18.3 11.7 63 4.0 E 6 7 3 4 1017.8 1017.8 0.0
27/03:30pm 19.6 19.0 11.6 60 4.4 E 6 11 3 6 1017.9 1017.9 0.0
27/03:00pm 19.5 18.6 11.3 59 4.5 ESE 7 11 4 6 1017.9 1017.9 0.0
27/02:30pm 19.6 17.7 10.6 56 4.9 ESE 11 15 6 8 1018.0 1018.0 0.0
27/02:00pm 19.9 19.0 10.6 55 5.0 E 6 9 3 5 1018.3 1018.3 0.0
27/01:30pm 19.8 18.7 10.5 55 5.0 E 7 11 4 6 1018.5 1018.5 0.0

Other Formats:

Comma delimited format used in spreadsheet applications
http://www.bom.gov.au/fwo/IDN60801/IDN60801.95767.axf

JavaScript Object Notation format (JSON) in row-major order
http://www.bom.gov.au/fwo/IDN60801/IDN60801.95767.json